Lower Kalskag, Alaska
Current Conditions -  °F | °C
As of 11:56 PM on Sunday 23 Nov 2014 (Local Time) from PALG Reporting Station
Few Clouds Few Clouds  
Wind Chill:   Ceiling: Unl
Heat Index: 12°   Visibility: 10mi
Dew Point:   Wind: 5mph
Humidity: 81%   Direction: 250°WSW
Pressure: 29.58"   Gusts: NA
Location:  61.52°N, 160.38°W
Report Text: PALG 240856Z AUTO 25004KT 10SM FEW065 M11/M14 A2958 RMK AO2 TSNO 53017 T11111138 SLP021 $
Loading
Personal Weather Stations






























Interactive Weather Map New forecast layout! Learn more

10-Day Weather Forecast

Advertisements
Track Severe Weather on mobile